Historyczne dane pomiarowe

Dodano dane terminowe – wersja testowa.

Dane z okresu 1951-2019

Wersja bazy: 1.34 [2019-03-16, lista zmian], aktualizacja planowana na 2019-04-15

Dane meteo z obszaru Polski uzyskane na podstawie danych udostępnionych przez Instytut Meteorologii i Gospodarki Wodnej – Państwowy Instytut Badawczy.

 

Wybierz Datę:    

       

TemperaturaWilgotnośćWiatrCiśnienieOpadyŚniegCzas trwania zjawisk
 Stacja t tx tn tng RH VA  wxwx mslp ppp RRR   cm mm wxwxwxwxwxwxwx
1961-08-14 12.8 20.0 6.3 6.1 86.3- 4.0 0.7---- 4.5------------
1961-08-13 13.4 20.0 10.2 12.1 79.8- 4.0 1.3---- 0.1------------
1961-08-12 16.5 20.2 13.6 12.8 81.5- 7.3 1.0---- 0.0------------
1961-08-11 16.5 20.3 15.6 17.0 96.3- 5.3 1.0---- 12.2------------
1961-08-10 22.1 28.9 17.7 16.9 83.3- 5.7 0.0---- 0.7------------
1961-08-09 20.6 26.5 15.1 12.7 83.8- 5.0 0.0---- 0.3------------
1961-08-08 19.2 23.7 12.1 8.5 77.8- 4.0 1.3---- 0.0------------
1961-08-07 18.0 23.5 16.3 16.3 85.0- 6.3 1.3---- 1.4------------
1961-08-06 22.4 31.0 13.3 11.6 76.8- 1.7 2.0---- 15.6------------
1961-08-05 18.9 25.1 13.6 11.3 82.8- 3.3 2.7---- 0.0------------
1961-08-04 15.7 18.6 8.9 5.7 75.3- 6.0 1.7---- 0.3------------
1961-08-03 13.5 16.6 11.9 10.1 84.0- 5.0 1.0---- 0.0------------
1961-08-02 14.9 20.1 11.4 7.7 92.0- 5.3 0.0---- 2.7------------
1961-08-01 15.1 21.5 11.5 10.4 77.3- 1.3 2.0---- 0.0------------
1961-07-31 14.4 17.8 11.9 11.5 75.3- 8.0 4.0---- 0.0------------
1961-07-30 13.4 17.5 9.3 7.9 88.0- 7.7 2.0---- 16.6------------
1961-07-29 12.2 18.2 10.6 9.8 82.5- 5.7 1.7---- 0.0------------
1961-07-28 15.4 19.8 13.5 12.6 88.0- 8.0 2.3---- 3.9------------
1961-07-27 19.3 24.7 15.1 12.1 70.5- 7.3 5.3---- 0.9------------
1961-07-26 18.3 23.6 11.6 9.6 64.0- 4.0 2.7---- 0.0------------
1961-07-25 13.4 18.4 11.5 11.1 79.8- 7.0 1.7---- 0.0------------
1961-07-24 14.0 16.4 11.0 9.8 72.8- 7.3 4.0---- 0.0------------
1961-07-23 13.3 16.4 12.0 11.7 84.5- 6.7 2.0---- 0.2------------
1961-07-22 14.4 16.6 13.1 12.8 82.3- 8.0 3.0---- 2.4------------
1961-07-21 14.1 15.1 13.1 12.9 83.5- 8.0 2.7---- 5.3------------
1961-07-20 15.7 19.8 9.2 8.1 78.8- 6.3 2.0---- 1.2------------
1961-07-19 15.0 19.0 11.8 10.4 87.0- 5.7 0.3---- 11.4------------
1961-07-18 14.4 19.9 11.3 10.6 83.8- 7.3 2.0---- 0.6------------
1961-07-17 13.2 15.6 8.0 7.0 87.5- 8.0 3.0---- 2.4------------
1961-07-16 16.2 23.0 12.8 10.8 73.3- 3.0 2.0---- 5.5------------
1961-07-15 19.8 24.8 13.9 11.7 59.5- 6.7 3.0---- 0.0------------
1961-07-14 16.7 21.2 13.3 12.1 62.0- 7.7 5.0---- 0.8------------
1961-07-13 18.1 23.5 15.8 14.6 79.5- 5.3 2.0---- 0.8------------
1961-07-12 21.5 27.7 13.2 11.7 72.5- 4.7 0.7---- 0.0------------
1961-07-11 17.9 24.0 7.7 6.5 75.5- 7.3 1.7---- 6.8------------
1961-07-10 12.8 17.9 11.1 8.8 77.0- 6.3 2.7---- 0.2------------
1961-07-09 14.3 18.5 12.6 10.2 86.3- 7.3 5.0---- 6.0------------
1961-07-08 17.0 23.1 5.7 4.9 57.8- 4.0 2.3---- 2.2------------
1961-07-07 13.1 18.1 9.5 8.0 75.0- 5.3 1.3---- 0.0------------
1961-07-06 12.5 16.2 7.5 6.5 79.8- 8.0 3.3---- 2.8------------
1961-07-05 12.0 16.0 10.2 10.3 72.3- 6.7 3.0---- 0.9------------
1961-07-04 17.1 24.5 14.0 14.7 87.5- 6.0 2.3---- 3.9------------
1961-07-03 25.0 33.1 13.1 11.5 60.8- 1.7 0.3---- 0.0------------
1961-07-02 23.6 31.4 12.7 10.7 59.5- 0.0 0.0---- 0.0------------
1961-07-01 22.2 29.1 11.5 9.6 65.5- 0.0 0.3---- 0.0------------
1961-06-30 19.3 27.3 8.9 7.2 69.3- 0.0 0.0---- 0.0------------
1961-06-29 17.1 24.5 9.6 7.7 70.0- 0.3 1.0---- 0.0------------
1961-06-28 15.1 19.5 13.2 12.0 62.0- 5.0 4.3---- 0.0------------
1961-06-27 21.3 27.5 16.1 14.3 73.5- 6.3 4.3---- 1.4------------
1961-06-26 22.7 29.0 13.4 11.9 68.0- 1.0 0.7---- 0.0------------
1961-06-25 21.4 30.0 11.1 9.8 65.0- 2.7 2.0---- 0.0------------
1961-06-24 18.5 25.7 12.9 10.6 75.0- 3.7 2.0---- 0.0------------
1961-06-23 16.8 22.6 14.5 13.9 77.5- 2.3 1.7---- 0.0------------
1961-06-22 17.9 25.3 9.9 5.0 75.8- 2.3 1.0---- 24.3------------
1961-06-21 15.6 24.1 6.8 5.6 72.3- 4.7 0.7---- 0.0------------
1961-06-20 14.5 21.1 10.9 6.1 64.8- 0.0 0.7---- 0.0------------
1961-06-19 15.8 21.5 13.1 13.5 76.8- 3.0 3.0---- 0.8------------
1961-06-18 21.9 27.7 11.0 9.1 62.8- 5.0 0.3---- 1.6------------
1961-06-17 17.1 23.0 6.5 4.8 71.3- 3.0 2.3---- 0.0------------
1961-06-16 14.1 20.7 9.3 5.8 70.8- 3.0 2.3---- 0.0------------
1015.8 ms

 

Źródłem pochodzenia danych jest Instytut Meteorologii i Gospodarki Wodnej – Państwowy Instytut Badawczy. Dane Instytutu Meteorologii i Gospodarki Wodnej – Państwowego Instytutu Badawczego zostały przetworzone.

Dane źródłowe można odnaleźć na stronie https://dane.imgw.pl